Jacksonville, FL (32229)

8:34 AM EST on February 12, 2016 (GMT -0500)
Oceanway | | Change Station
CLOSE
Current Station
Personal Weather Station
Location: Jacksonville, FL
Elevation: 26 ft
Nearby Weather Stations

Elev 26 ft 30.45 °N, 81.61 °W | Updated 8 minutes ago

Mostly Cloudy
Mostly Cloudy
55.8 °F
Feels Like 55.8 °F
N
1.0
Wind Variable Wind from WNW
Gusts 5.0 mph

Today
High -- | Low -- °F
--% Chance of Precip.
Yesterday
High -- | Low -- °F
Precip. -- in
Pressure 30.22 in
Visibility 10.0 miles
Clouds Few 2800 ft
Scattered Clouds 3600 ft
Dew Point 54 °F
Humidity 92%
Rainfall 0.00 in
Snow Depth Not available.
7:09 AM 6:11 PM
Waxing Crescent, 20% visible
METAR KCRG 121253Z 21006KT 10SM FEW028 SCT036 12/10 A3023 RMK AO2 SLP234 T01170100 $
Pressure 30.22 in
Visibility 10.0 miles
Clouds Few 2800 ft
Scattered Clouds 3600 ft
Dew Point 54 °F
Humidity 92%
Rainfall 0.00 in
Snow Depth Not available.
7:09 AM 6:11 PM
Waxing Crescent, 20% visible
METAR KCRG 121253Z 21006KT 10SM FEW028 SCT036 12/10 A3023 RMK AO2 SLP234 T01170100 $

10-Day Weather Forecast

Almanac

Astronomy

Feb. 12, 2016 Rise Set
Actual Time
Civil Twilight
Nautical Twilight
Astronomical Twilight
Moon
Length of Visible Light
Length of Day
Tomorrow will be .
, % of the Moon is Illuminated

Today's Extremes

State Highs State Lows

Community

WunderPhotos

Upload Photos

1,892,312 photos uploaded!

WunderBlog® & News

Nearby

Air Quality

  Air Quality AQ Index Pollutant
Not available.

Snow Depth

Station Depth Elevation

Earthquake Activity

City Distance Mag. Time & Date
Minimum magnitude displayed is 2.5.

Coastal Water Temperatures

Place Temperature

Stations

Nearby Weather Stations

Station Location Temp. Windchill Dew Point Humidity Wind Precip. Elev Updated Type
                   

Watches & Warnings

There are currently no watches in effect.